Time;durP1;ratioP1;P1;durP2;ratioP2;P2;SDS_P1;SDS_P2;PMS_P1;PMS_P2;Temp;Humidity;BMP_temperature;BMP_pressure;BME280_temperature;BME280_humidity;BME280_pressure;Samples;Min_cycle;Max_cycle;Signal;HPM_P1;HPM_P2
2023/04/28 00:02:47;;;;;;;10.18;9.07;;;23.60;75.10;;;;;;6251964;28;92946;-66
2023/04/28 00:05:49;;;;;;;10.65;9.65;;;23.60;75.00;;;;;;6252161;28;95908;-66
2023/04/28 00:08:51;;;;;;;10.75;9.55;;;23.60;75.10;;;;;;6240449;28;94949;-66
2023/04/28 00:11:53;;;;;;;11.27;10.10;;;23.50;75.00;;;;;;6251041;28;94157;-66
2023/04/28 00:14:56;;;;;;;11.25;9.88;;;23.50;75.00;;;;;;6250277;28;92954;-66
2023/04/28 00:17:58;;;;;;;10.82;9.73;;;23.50;75.00;;;;;;6250739;28;94073;-66
2023/04/28 00:21:01;;;;;;;11.05;9.95;;;23.50;75.00;;;;;;6251186;28;94160;-66
2023/04/28 00:24:03;;;;;;;10.57;9.50;;;23.50;74.90;;;;;;6240923;28;94016;-66
2023/04/28 00:27:05;;;;;;;12.27;10.98;;;23.50;74.90;;;;;;6252172;28;94159;-66
2023/04/28 00:30:09;;;;;;;11.18;10.02;;;23.50;74.90;;;;;;6252564;28;93772;-65
2023/04/28 00:33:12;;;;;;;11.30;10.20;;;23.50;74.80;;;;;;6239678;28;94239;-66
2023/04/28 00:36:14;;;;;;;11.90;10.70;;;23.40;74.60;;;;;;6248043;28;94054;-66
2023/04/28 00:39:17;;;;;;;11.63;10.48;;;23.40;74.70;;;;;;6247668;28;95032;-65
2023/04/28 00:42:19;;;;;;;11.70;10.50;;;23.40;74.60;;;;;;6241666;27;94133;-66
2023/04/28 00:45:22;;;;;;;11.60;10.50;;;23.40;74.50;;;;;;6255943;28;94208;-66
2023/04/28 00:48:24;;;;;;;11.95;10.73;;;23.40;74.50;;;;;;6256335;28;94683;-66
2023/04/28 00:51:27;;;;;;;12.00;10.80;;;23.40;75.40;;;;;;6253338;27;94220;-66
2023/04/28 00:54:29;;;;;;;11.45;10.35;;;23.40;74.50;;;;;;6255004;28;94166;-66
2023/04/28 00:57:32;;;;;;;12.45;11.23;;;23.40;74.50;;;;;;6240711;28;94146;-66
2023/04/28 01:00:35;;;;;;;12.15;10.93;;;23.40;74.50;;;;;;6242885;28;93589;-66
2023/04/28 01:03:40;;;;;;;12.23;11.02;;;23.40;74.40;;;;;;6237146;28;94185;-66
2023/04/28 01:06:42;;;;;;;12.25;11.05;;;23.40;74.40;;;;;;6242455;28;94130;-66
2023/04/28 01:09:46;;;;;;;11.48;10.38;;;23.30;74.20;;;;;;6237995;28;95125;-66
2023/04/28 01:12:48;;;;;;;11.90;10.68;;;23.40;74.20;;;;;;6240721;28;94010;-66
2023/04/28 01:15:52;;;;;;;11.70;10.60;;;23.40;74.20;;;;;;6249868;28;94172;-65
2023/04/28 01:18:54;;;;;;;12.50;11.30;;;23.40;74.20;;;;;;6253650;28;94177;-65
2023/04/28 01:21:56;;;;;;;11.57;10.48;;;23.30;74.10;;;;;;6254121;28;94222;-66
2023/04/28 01:25:00;;;;;;;12.20;11.00;;;23.30;74.00;;;;;;6255387;28;94110;-65
2023/04/28 01:28:02;;;;;;;12.00;10.80;;;23.30;74.20;;;;;;6252344;28;94309;-66
2023/04/28 01:31:04;;;;;;;12.40;11.20;;;23.30;74.10;;;;;;6248129;28;95969;-66
2023/04/28 01:34:06;;;;;;;12.50;11.27;;;23.30;74.10;;;;;;6254036;28;94123;-66
2023/04/28 01:37:08;;;;;;;12.75;11.45;;;23.30;74.10;;;;;;6253878;28;94123;-66
2023/04/28 01:40:13;;;;;;;12.50;11.20;;;23.30;74.00;;;;;;6236704;28;95024;-65
2023/04/28 01:43:15;;;;;;;11.82;10.73;;;23.30;74.00;;;;;;6252736;27;94275;-66
2023/04/28 01:46:17;;;;;;;12.63;11.32;;;23.30;74.00;;;;;;6252727;28;94162;-66
2023/04/28 01:49:19;;;;;;;12.20;11.02;;;23.30;73.90;;;;;;6247714;28;94147;-66
2023/04/28 01:52:23;;;;;;;12.35;11.15;;;23.30;73.80;;;;;;6250619;27;93009;-66
2023/04/28 01:55:26;;;;;;;11.70;10.60;;;23.30;73.90;;;;;;6252879;28;94592;-66
2023/04/28 01:58:28;;;;;;;12.30;11.10;;;23.20;73.80;;;;;;6254597;28;94102;-66
2023/04/28 02:01:30;;;;;;;12.80;11.50;;;23.20;73.80;;;;;;6254170;28;93482;-66
2023/04/28 02:04:32;;;;;;;13.13;11.82;;;23.30;73.80;;;;;;6244826;28;94045;-65
2023/04/28 02:07:34;;;;;;;12.82;11.52;;;23.30;73.80;;;;;;6251651;28;94200;-66
2023/04/28 02:10:37;;;;;;;12.73;11.43;;;23.20;73.70;;;;;;6252859;27;94004;-66
2023/04/28 02:13:39;;;;;;;11.98;10.77;;;23.20;73.70;;;;;;6240762;28;94121;-66
2023/04/28 02:16:41;;;;;;;11.10;10.00;;;23.20;73.10;;;;;;6242074;28;94096;-66
2023/04/28 02:19:43;;;;;;;11.77;10.57;;;23.30;72.00;;;;;;6250027;28;94146;-66
2023/04/28 02:22:45;;;;;;;11.38;10.27;;;23.20;71.90;;;;;;6248267;28;94058;-66
2023/04/28 02:25:49;;;;;;;11.40;10.30;;;23.20;72.30;;;;;;6252279;28;94130;-66
2023/04/28 02:28:51;;;;;;;12.13;10.90;;;23.20;72.60;;;;;;6248070;28;94168;-67
2023/04/28 02:31:53;;;;;;;11.75;10.57;;;23.20;72.70;;;;;;6254131;28;93602;-68
2023/04/28 02:34:55;;;;;;;11.65;10.45;;;23.20;72.80;;;;;;6251515;28;94129;-68
2023/04/28 02:37:57;;;;;;;12.23;10.70;;;23.20;72.80;;;;;;6253421;28;94228;-68
2023/04/28 02:41:01;;;;;;;11.63;10.43;;;23.20;72.90;;;;;;6246865;28;95007;-67
2023/04/28 02:44:03;;;;;;;11.40;10.30;;;23.10;72.90;;;;;;6241834;28;94408;-68
2023/04/28 02:47:05;;;;;;;11.52;10.18;;;23.10;72.90;;;;;;6247471;28;94387;-68
2023/04/28 02:50:09;;;;;;;11.55;10.48;;;23.10;73.00;;;;;;6252878;28;94795;-68
2023/04/28 02:53:11;;;;;;;11.23;10.13;;;23.10;73.00;;;;;;6252195;28;94112;-68
2023/04/28 02:56:14;;;;;;;11.40;10.30;;;23.10;73.00;;;;;;6248870;28;93141;-68
2023/04/28 02:59:16;;;;;;;11.23;10.10;;;23.10;73.00;;;;;;6249115;28;94157;-68
2023/04/28 03:02:19;;;;;;;11.52;10.43;;;23.10;73.00;;;;;;6251818;28;92253;-68
2023/04/28 03:05:21;;;;;;;10.95;9.82;;;23.10;73.10;;;;;;6246339;28;94348;-68
2023/04/28 03:08:23;;;;;;;11.50;10.40;;;23.10;73.00;;;;;;6253759;28;94126;-68
2023/04/28 03:11:27;;;;;;;11.52;10.35;;;23.10;73.20;;;;;;6251308;28;95041;-68
2023/04/28 03:14:29;;;;;;;10.55;9.55;;;23.10;73.20;;;;;;6242823;28;94174;-68
2023/04/28 03:17:31;;;;;;;11.40;10.30;;;23.10;73.20;;;;;;6254270;28;94115;-68
2023/04/28 03:20:33;;;;;;;11.02;9.95;;;23.10;73.20;;;;;;6229130;28;94172;-69
2023/04/28 03:23:35;;;;;;;10.88;9.80;;;23.10;73.00;;;;;;6238868;28;94133;-68
2023/04/28 03:26:39;;;;;;;10.60;9.60;;;23.10;72.90;;;;;;6237998;28;94048;-68
2023/04/28 03:29:41;;;;;;;10.23;9.23;;;23.00;72.80;;;;;;6246263;28;94137;-68
2023/04/28 03:32:43;;;;;;;10.38;9.38;;;23.10;72.80;;;;;;6244649;28;93542;-68
2023/04/28 03:35:45;;;;;;;10.25;9.20;;;23.10;72.80;;;;;;6251506;28;94403;-68
2023/04/28 03:38:47;;;;;;;10.13;9.13;;;23.10;72.80;;;;;;6245000;28;94581;-68
2023/04/28 03:41:50;;;;;;;10.40;9.40;;;23.10;72.80;;;;;;6248131;28;94053;-68
2023/04/28 03:44:52;;;;;;;10.40;9.30;;;23.10;72.70;;;;;;6252069;28;94251;-68
2023/04/28 03:47:54;;;;;;;9.68;8.77;;;23.20;72.80;;;;;;6252755;28;94248;-68
2023/04/28 03:50:56;;;;;;;10.07;9.18;;;23.20;72.80;;;;;;6251864;28;94217;-68
2023/04/28 03:53:58;;;;;;;9.32;8.48;;;23.20;72.70;;;;;;6248603;28;94174;-67
2023/04/28 03:57:03;;;;;;;9.13;8.23;;;23.30;72.70;;;;;;6252424;28;94382;-68
2023/04/28 04:00:06;;;;;;;9.77;8.77;;;23.30;72.60;;;;;;6250766;28;94056;-68
2023/04/28 04:03:09;;;;;;;9.65;8.75;;;23.30;72.60;;;;;;6252636;27;92419;-68
2023/04/28 04:06:11;;;;;;;9.00;8.20;;;23.30;73.30;;;;;;6251315;28;93082;-68
2023/04/28 04:09:13;;;;;;;8.93;8.07;;;23.30;72.40;;;;;;6250119;28;94272;-68
2023/04/28 04:12:16;;;;;;;9.90;8.90;;;23.40;72.50;;;;;;6246194;28;95075;-68
2023/04/28 04:15:18;;;;;;;8.95;8.15;;;23.40;72.30;;;;;;6252057;28;93025;-68
2023/04/28 04:18:20;;;;;;;8.85;8.05;;;23.40;72.30;;;;;;6240994;28;94051;-68
2023/04/28 04:21:22;;;;;;;8.80;7.97;;;23.40;72.30;;;;;;6253183;28;94103;-68
2023/04/28 04:24:24;;;;;;;8.45;7.72;;;23.50;72.20;;;;;;6251343;28;94100;-68
2023/04/28 04:27:27;;;;;;;8.55;7.75;;;23.50;72.20;;;;;;6252129;28;94126;-68
2023/04/28 04:30:29;;;;;;;8.25;7.55;;;23.40;72.00;;;;;;6250688;28;94167;-68
2023/04/28 04:33:33;;;;;;;8.30;7.60;;;23.50;72.20;;;;;;6252784;28;93469;-68
2023/04/28 04:36:35;;;;;;;8.60;7.80;;;23.50;72.10;;;;;;6250866;28;94158;-68
2023/04/28 04:39:37;;;;;;;8.77;7.88;;;23.50;72.20;;;;;;6235316;28;94226;-68
2023/04/28 04:42:40;;;;;;;7.95;7.22;;;23.50;72.10;;;;;;6243341;28;95032;-68
2023/04/28 04:45:42;;;;;;;8.00;7.28;;;23.50;72.10;;;;;;6251852;28;94292;-68
2023/04/28 04:48:44;;;;;;;7.90;7.20;;;23.50;72.10;;;;;;6252166;28;94428;-68
2023/04/28 04:51:46;;;;;;;7.70;7.00;;;23.50;72.10;;;;;;6252216;28;94132;-68
2023/04/28 04:54:48;;;;;;;8.20;7.40;;;23.50;72.10;;;;;;6251371;28;96174;-68
2023/04/28 04:57:52;;;;;;;7.90;7.10;;;23.50;72.10;;;;;;6250835;28;94354;-68
2023/04/28 05:00:56;;;;;;;7.72;7.03;;;23.50;72.00;;;;;;6251046;28;94091;-68
2023/04/28 05:03:58;;;;;;;7.40;6.70;;;23.50;72.10;;;;;;6251121;27;93872;-68
2023/04/28 05:07:00;;;;;;;7.70;6.93;;;23.50;72.00;;;;;;6247347;27;94577;-69
2023/04/28 05:10:03;;;;;;;7.70;7.00;;;23.50;72.20;;;;;;6251291;27;94093;-67
2023/04/28 05:13:06;;;;;;;8.00;7.20;;;23.50;72.50;;;;;;6245695;28;95125;-67
2023/04/28 05:16:08;;;;;;;7.15;6.47;;;23.50;72.60;;;;;;6248351;28;94147;-68
2023/04/28 05:19:10;;;;;;;7.30;6.60;;;23.60;72.60;;;;;;6247350;28;94431;-68
2023/04/28 05:22:12;;;;;;;8.43;7.00;;;23.60;72.50;;;;;;6243938;28;94070;-67
2023/04/28 05:25:15;;;;;;;7.40;6.70;;;23.60;72.50;;;;;;6247857;27;94698;-67
2023/04/28 05:28:18;;;;;;;6.95;6.30;;;23.70;72.50;;;;;;6250726;27;94178;-68
2023/04/28 05:31:20;;;;;;;6.85;6.22;;;23.70;72.30;;;;;;6254810;28;94091;-67
2023/04/28 05:34:22;;;;;;;7.40;6.65;;;23.70;72.40;;;;;;6256581;28;93330;-67
2023/04/28 05:37:24;;;;;;;6.95;6.25;;;23.70;72.30;;;;;;6249817;28;94163;-68
2023/04/28 05:40:27;;;;;;;6.78;6.07;;;23.80;72.40;;;;;;6248882;28;95237;-68
2023/04/28 05:43:31;;;;;;;6.90;5.85;;;23.80;72.30;;;;;;6253291;28;95036;-68
2023/04/28 05:46:32;;;;;;;6.20;5.60;;;23.80;72.10;;;;;;6247915;28;94267;-68
2023/04/28 05:49:35;;;;;;;6.85;6.15;;;23.80;72.00;;;;;;6255557;28;94273;-68
2023/04/28 05:52:36;;;;;;;6.57;5.95;;;23.80;72.00;;;;;;6249689;28;92961;-68
2023/04/28 05:55:39;;;;;;;6.32;5.72;;;23.80;72.90;;;;;;6252922;28;94199;-68
2023/04/28 05:58:43;;;;;;;6.90;6.20;;;23.80;72.00;;;;;;6252150;28;94074;-68
2023/04/28 06:01:45;;;;;;;6.75;6.05;;;23.80;71.80;;;;;;6254522;28;93993;-68
2023/04/28 06:04:47;;;;;;;6.38;5.78;;;23.80;71.90;;;;;;6249989;27;92386;-68
2023/04/28 06:07:49;;;;;;;6.60;5.35;;;23.90;71.80;;;;;;6250971;28;94091;-68
2023/04/28 06:10:51;;;;;;;6.40;5.70;;;23.90;71.80;;;;;;6234770;28;94129;-68
2023/04/28 06:13:55;;;;;;;6.22;5.63;;;23.80;71.70;;;;;;6240237;28;94980;-68
2023/04/28 06:16:56;;;;;;;5.75;5.13;;;23.90;72.70;;;;;;6252893;28;94201;-68
2023/04/28 06:19:58;;;;;;;6.30;5.70;;;23.90;71.80;;;;;;6250558;28;94760;-68
2023/04/28 06:23:02;;;;;;;5.88;5.30;;;23.90;71.70;;;;;;6246230;28;94227;-68
2023/04/28 06:26:04;;;;;;;8.02;5.25;;;23.90;71.70;;;;;;6247759;28;94033;-68
2023/04/28 06:29:07;;;;;;;6.95;5.63;;;23.90;71.70;;;;;;6253177;28;96158;-68
2023/04/28 06:32:09;;;;;;;5.88;5.25;;;23.90;71.70;;;;;;6244035;28;94493;-68
2023/04/28 06:35:11;;;;;;;5.90;5.30;;;23.90;71.70;;;;;;6252197;28;93406;-68
2023/04/28 06:38:13;;;;;;;5.65;5.15;;;23.90;71.70;;;;;;6248602;28;94203;-68
2023/04/28 06:41:15;;;;;;;5.95;5.35;;;23.90;72.00;;;;;;6242234;28;94127;-68
2023/04/28 06:44:18;;;;;;;6.10;5.47;;;23.90;71.60;;;;;;6254127;28;94867;-68
2023/04/28 06:47:20;;;;;;;5.45;4.95;;;23.90;71.60;;;;;;6251900;28;94414;-68
2023/04/28 06:50:23;;;;;;;5.85;5.18;;;24.00;71.70;;;;;;6251784;28;94146;-67
2023/04/28 06:53:25;;;;;;;6.78;5.40;;;23.90;71.60;;;;;;6253071;28;94110;-68
2023/04/28 06:56:27;;;;;;;6.50;5.30;;;24.00;71.70;;;;;;6252726;28;96452;-68
2023/04/28 06:59:31;;;;;;;5.53;4.90;;;23.90;71.60;;;;;;6252402;28;94029;-68
2023/04/28 07:02:33;;;;;;;5.47;4.97;;;24.00;71.60;;;;;;6239727;28;94273;-68
2023/04/28 07:05:35;;;;;;;5.60;5.00;;;24.00;71.60;;;;;;6237026;28;93522;-68
2023/04/28 07:08:37;;;;;;;5.93;5.03;;;24.00;71.60;;;;;;6248825;28;94167;-68
2023/04/28 07:11:40;;;;;;;5.85;4.57;;;24.00;71.60;;;;;;6237916;28;94425;-68
2023/04/28 07:14:43;;;;;;;6.13;5.30;;;24.00;71.70;;;;;;6242971;27;96214;-67
2023/04/28 07:17:45;;;;;;;6.45;4.80;;;24.00;71.60;;;;;;6247208;28;94107;-68
2023/04/28 07:20:47;;;;;;;5.53;4.80;;;24.00;71.60;;;;;;6235959;28;94126;-68
2023/04/28 07:23:49;;;;;;;5.05;4.50;;;24.00;71.60;;;;;;6250077;28;94176;-68
2023/04/28 07:26:51;;;;;;;6.47;4.90;;;24.00;71.60;;;;;;6244236;28;93063;-68
2023/04/28 07:29:54;;;;;;;5.10;4.60;;;24.00;71.60;;;;;;6254111;28;94215;-68
2023/04/28 07:32:57;;;;;;;4.72;4.32;;;24.00;71.60;;;;;;6241329;28;94345;-68
2023/04/28 07:35:59;;;;;;;5.38;4.82;;;24.00;71.60;;;;;;6249722;28;93660;-68
2023/04/28 07:39:01;;;;;;;5.32;4.82;;;24.00;71.50;;;;;;6251638;28;94459;-68
2023/04/28 07:42:03;;;;;;;5.43;4.60;;;24.00;71.60;;;;;;6243804;28;94163;-68
2023/04/28 07:45:08;;;;;;;5.10;4.60;;;24.00;71.50;;;;;;6251527;28;95100;-68
2023/04/28 07:48:10;;;;;;;4.97;4.47;;;24.00;71.50;;;;;;6246174;28;94199;-68
2023/04/28 07:51:12;;;;;;;5.03;4.57;;;24.10;71.60;;;;;;6248657;28;94403;-68
2023/04/28 07:54:14;;;;;;;5.40;4.40;;;24.10;71.60;;;;;;6252952;28;94172;-68
2023/04/28 07:57:16;;;;;;;4.93;4.43;;;24.10;71.60;;;;;;6249658;28;95282;-68
2023/04/28 08:00:20;;;;;;;5.22;4.35;;;24.00;71.50;;;;;;6251905;28;94176;-68
2023/04/28 08:03:22;;;;;;;5.00;4.50;;;24.10;71.50;;;;;;6249202;28;94125;-68
2023/04/28 08:06:24;;;;;;;4.55;4.15;;;24.10;71.50;;;;;;6246772;28;93372;-68
2023/04/28 08:09:26;;;;;;;4.75;4.32;;;24.10;71.50;;;;;;6248813;28;93596;-69
2023/04/28 08:12:28;;;;;;;4.85;4.35;;;24.10;71.90;;;;;;6236014;28;94489;-69
2023/04/28 08:15:31;;;;;;;5.00;4.50;;;24.10;71.50;;;;;;6206384;28;95047;-68
2023/04/28 08:18:33;;;;;;;5.25;4.20;;;24.10;71.50;;;;;;6201570;28;94183;-68
2023/04/28 08:21:35;;;;;;;4.88;4.00;;;24.10;71.50;;;;;;6208315;28;94097;-68
2023/04/28 08:24:37;;;;;;;5.30;4.55;;;24.10;71.50;;;;;;6204866;28;94051;-68
2023/04/28 08:27:39;;;;;;;5.00;4.20;;;24.10;71.50;;;;;;6202154;28;94091;-68
2023/04/28 08:30:43;;;;;;;4.43;4.03;;;24.10;71.50;;;;;;6200946;28;93994;-68
2023/04/28 08:33:47;;;;;;;4.20;3.80;;;24.10;71.50;;;;;;6199187;28;94130;-68
2023/04/28 08:36:49;;;;;;;5.10;4.53;;;24.10;71.50;;;;;;6205066;28;92836;-68
2023/04/28 08:39:58;;;;;;;5.32;4.20;;;24.10;71.50;;;;;;6196922;28;94155;-68
2023/04/28 08:43:00;;;;;;;5.03;4.00;;;24.10;71.30;;;;;;6207285;28;94390;-68
2023/04/28 08:46:07;;;;;;;4.32;3.90;;;24.20;71.40;;;;;;6194075;28;95072;-68
2023/04/28 08:49:15;;;;;;;4.15;3.75;;;24.10;71.40;;;;;;6202581;28;94148;-68
2023/04/28 08:52:18;;;;;;;4.72;4.18;;;24.20;71.40;;;;;;6202135;28;93886;-68
2023/04/28 08:55:21;;;;;;;4.93;3.88;;;24.10;71.40;;;;;;6202268;28;94137;-68
2023/04/28 08:58:24;;;;;;;4.10;3.70;;;24.10;71.40;;;;;;6202388;28;92902;-68
2023/04/28 09:01:27;;;;;;;4.30;3.90;;;24.20;71.50;;;;;;6201452;28;94154;-68
2023/04/28 09:04:29;;;;;;;4.40;4.00;;;24.10;71.40;;;;;;6204622;28;94821;-69
2023/04/28 09:07:31;;;;;;;4.72;4.00;;;24.20;71.50;;;;;;6205379;28;93394;-68
2023/04/28 09:10:33;;;;;;;4.47;3.65;;;24.10;71.50;;;;;;6206211;28;94147;-68
2023/04/28 09:13:36;;;;;;;4.15;3.75;;;24.10;71.60;;;;;;6220072;28;94171;-68
2023/04/28 09:16:44;;;;;;;4.18;3.78;;;24.20;71.30;;;;;;6252143;27;94680;-68
2023/04/28 09:19:46;;;;;;;3.97;3.50;;;24.20;71.60;;;;;;6254514;28;94200;-68
2023/04/28 09:22:48;;;;;;;4.18;3.42;;;24.20;71.90;;;;;;6245743;28;94328;-68
2023/04/28 09:26:01;;;;;;;5.03;3.47;;;24.20;71.90;;;;;;6255050;28;94173;-67
2023/04/28 09:29:13;;;;;;;4.45;3.58;;;24.20;71.30;;;;;;6255225;28;94287;-66
2023/04/28 09:32:17;;;;;;;7.68;4.05;;;24.20;70.90;;;;;;6249355;28;94099;-66
2023/04/28 09:35:39;;;;;;;4.55;3.45;;;24.20;71.00;;;;;;6251884;28;94074;-66
2023/04/28 09:38:44;;;;;;;5.35;3.17;;;24.20;71.20;;;;;;6255689;28;93467;-66
2023/04/28 09:41:47;;;;;;;4.82;3.55;;;24.30;71.40;;;;;;6253249;28;94603;-66
2023/04/28 09:44:53;;;;;;;4.38;3.33;;;24.20;71.30;;;;;;6254462;28;94258;-69
2023/04/28 09:48:10;;;;;;;4.13;3.67;;;24.30;71.40;;;;;;6254338;28;94990;-69
2023/04/28 09:51:12;;;;;;;6.22;4.10;;;24.20;71.40;;;;;;6242739;28;93914;-66
2023/04/28 09:54:15;;;;;;;6.63;3.67;;;24.20;71.40;;;;;;6252950;28;94098;-66
2023/04/28 09:57:18;;;;;;;5.97;3.65;;;24.20;71.50;;;;;;6244826;28;94632;-66
2023/04/28 10:00:20;;;;;;;6.72;3.70;;;24.20;71.50;;;;;;6236443;28;94157;-66
2023/04/28 10:03:26;;;;;;;6.15;3.33;;;24.20;71.50;;;;;;6251061;28;95752;-66
2023/04/28 10:06:29;;;;;;;5.93;3.97;;;24.20;71.50;;;;;;6246075;28;94177;-66
2023/04/28 10:09:34;;;;;;;3.70;3.10;;;24.20;71.10;;;;;;6243849;28;93734;-66
2023/04/28 10:12:37;;;;;;;4.55;3.15;;;24.30;71.60;;;;;;6243994;28;94123;-69
2023/04/28 10:15:40;;;;;;;4.55;3.00;;;24.20;71.60;;;;;;6251394;27;94353;-69
2023/04/28 10:18:45;;;;;;;3.60;3.30;;;24.20;71.60;;;;;;6249469;28;95013;-66
2023/04/28 10:21:59;;;;;;;5.45;3.22;;;24.20;71.70;;;;;;6254937;28;94142;-66
2023/04/28 10:25:24;;;;;;;4.15;3.28;;;24.20;71.70;;;;;;6253654;28;94148;-66
2023/04/28 10:28:27;;;;;;;6.80;3.40;;;24.30;71.80;;;;;;6246247;28;93025;-66
2023/04/28 10:31:29;;;;;;;5.43;3.80;;;24.20;71.80;;;;;;6253518;28;94022;-66
2023/04/28 10:34:32;;;;;;;3.88;3.47;;;24.20;71.10;;;;;;6248992;28;94202;-67
2023/04/28 10:38:05;;;;;;;6.47;4.10;;;24.10;68.80;;;;;;6251230;28;94160;-66
2023/04/28 10:41:31;;;;;;;4.57;3.42;;;24.10;67.40;;;;;;6229770;27;93404;-67
2023/04/28 10:44:43;;;;;;;4.35;3.80;;;24.00;66.70;;;;;;6250157;28;95209;-69
2023/04/28 10:48:04;;;;;;;3.92;3.38;;;24.00;67.10;;;;;;6236089;28;92970;-67
2023/04/28 10:51:30;;;;;;;5.75;3.60;;;24.00;66.20;;;;;;6243612;28;95213;-67
2023/04/28 10:54:32;;;;;;;7.05;4.45;;;23.90;66.00;;;;;;6251820;28;93982;-67
2023/04/28 10:57:35;;;;;;;4.47;3.60;;;23.90;66.00;;;;;;6252074;28;94084;-67
2023/04/28 11:00:38;;;;;;;5.05;3.92;;;23.90;66.00;;;;;;6246295;28;93087;-67
2023/04/28 11:03:50;;;;;;;5.30;3.75;;;23.80;66.20;;;;;;6244825;28;94162;-67
2023/04/28 11:07:12;;;;;;;3.97;3.58;;;23.70;66.40;;;;;;6246622;28;94963;-67
2023/04/28 11:10:14;;;;;;;6.68;3.90;;;23.70;66.30;;;;;;6249686;28;92982;-67
2023/04/28 11:13:26;;;;;;;5.28;3.80;;;23.70;66.20;;;;;;6245619;28;93626;-67
2023/04/28 11:16:28;;;;;;;5.63;4.55;;;23.70;66.30;;;;;;6252063;28;94094;-67
2023/04/28 11:19:31;;;;;;;4.65;4.10;;;23.60;67.20;;;;;;6251047;27;94385;-67
2023/04/28 11:22:35;;;;;;;5.45;3.88;;;23.60;66.60;;;;;;6246143;28;95120;-67
2023/04/28 11:25:55;;;;;;;5.00;3.92;;;23.60;67.40;;;;;;6247872;28;94217;-67
2023/04/28 11:28:58;;;;;;;4.32;3.63;;;23.60;66.70;;;;;;6250881;27;93970;-67
2023/04/28 11:32:00;;;;;;;5.50;3.50;;;23.50;66.80;;;;;;6253705;28;94096;-67
2023/04/28 11:35:08;;;;;;;4.40;4.00;;;23.50;66.90;;;;;;6251699;28;93128;-67
2023/04/28 11:38:11;;;;;;;4.53;4.00;;;23.50;67.00;;;;;;6250303;28;94063;-66
2023/04/28 11:41:13;;;;;;;4.15;3.75;;;23.40;66.90;;;;;;6250645;27;94107;-67
2023/04/28 11:44:16;;;;;;;4.72;3.70;;;23.40;67.10;;;;;;6253092;28;92390;-67
2023/04/28 11:47:29;;;;;;;4.00;3.60;;;23.40;67.10;;;;;;6250362;27;94154;-66
2023/04/28 11:50:38;;;;;;;4.30;3.90;;;23.40;67.20;;;;;;6247892;28;93096;-67
2023/04/28 11:53:45;;;;;;;4.93;3.70;;;23.30;67.20;;;;;;6252043;28;95056;-66
2023/04/28 11:56:47;;;;;;;4.68;3.60;;;23.30;67.40;;;;;;6252613;28;94178;-66
2023/04/28 11:59:50;;;;;;;4.65;3.80;;;23.30;67.60;;;;;;6244526;27;94295;-66
2023/04/28 12:02:52;;;;;;;5.18;4.13;;;23.30;67.70;;;;;;6247259;27;94561;-66
2023/04/28 12:05:54;;;;;;;3.83;3.53;;;23.30;68.10;;;;;;6241054;28;94213;-66
2023/04/28 12:09:03;;;;;;;3.90;3.50;;;23.30;68.50;;;;;;6252850;28;94157;-66
2023/04/28 12:12:06;;;;;;;6.07;3.53;;;23.30;68.90;;;;;;6246210;28;94101;-66
2023/04/28 12:15:09;;;;;;;3.88;3.03;;;23.30;69.50;;;;;;6247035;28;92349;-66
2023/04/28 12:18:12;;;;;;;7.88;3.15;;;23.30;69.60;;;;;;6250432;27;94061;-66
2023/04/28 12:21:21;;;;;;;8.65;3.60;;;23.30;69.90;;;;;;6251115;28;94110;-66
2023/04/28 12:24:25;;;;;;;7.50;3.25;;;23.40;70.50;;;;;;6241657;28;95008;-66
2023/04/28 12:27:28;;;;;;;7.10;3.25;;;23.40;70.80;;;;;;6247501;27;94251;-66
2023/04/28 12:30:31;;;;;;;6.20;3.00;;;23.40;71.00;;;;;;6252902;28;94436;-66
2023/04/28 12:33:36;;;;;;;3.55;2.72;;;23.40;71.00;;;;;;6251005;28;94077;-66
2023/04/28 12:36:38;;;;;;;6.20;3.10;;;23.40;71.20;;;;;;6250326;28;94134;-66
2023/04/28 12:39:42;;;;;;;5.32;3.25;;;23.40;71.10;;;;;;6240180;28;94188;-66
2023/04/28 12:42:44;;;;;;;6.38;3.25;;;23.50;71.40;;;;;;6253390;28;94405;-66
2023/04/28 12:45:46;;;;;;;7.72;3.63;;;23.40;71.90;;;;;;6252381;28;93498;-66
2023/04/28 12:48:48;;;;;;;8.07;3.30;;;23.50;72.80;;;;;;6251417;28;94368;-66
2023/04/28 12:51:50;;;;;;;10.57;3.60;;;23.50;76.10;;;;;;6251855;28;94374;-66
2023/04/28 12:54:54;;;;;;;7.18;3.38;;;23.60;75.00;;;;;;6251352;28;95179;-66
2023/04/28 12:57:56;;;;;;;10.45;3.78;;;23.60;74.50;;;;;;6242720;28;94448;-66
2023/04/28 13:00:58;;;;;;;9.50;3.35;;;23.60;74.50;;;;;;6251837;28;94335;-66
2023/04/28 13:04:00;;;;;;;8.73;3.15;;;23.60;74.70;;;;;;6245248;28;94096;-66
2023/04/28 13:07:02;;;;;;;6.43;3.10;;;23.70;74.90;;;;;;6252125;28;96249;-66
2023/04/28 13:10:07;;;;;;;8.77;3.40;;;23.60;74.70;;;;;;6246285;28;94178;-66
2023/04/28 13:13:10;;;;;;;8.07;3.20;;;23.60;74.50;;;;;;6239163;28;93124;-66
2023/04/28 13:16:13;;;;;;;10.48;3.67;;;23.70;74.70;;;;;;6252905;28;92577;-66
2023/04/28 13:19:16;;;;;;;6.97;3.15;;;23.70;74.60;;;;;;6252186;28;94016;-66
2023/04/28 13:22:18;;;;;;;7.68;3.50;;;23.70;74.70;;;;;;6247662;28;94108;-67
2023/04/28 13:25:21;;;;;;;7.38;3.08;;;23.60;74.60;;;;;;6249749;28;93937;-66
2023/04/28 13:28:23;;;;;;;9.38;3.42;;;23.70;74.60;;;;;;6248904;28;94125;-66
2023/04/28 13:31:25;;;;;;;7.75;3.63;;;23.70;74.70;;;;;;6251452;28;94294;-66
2023/04/28 13:34:28;;;;;;;8.20;3.10;;;23.70;74.60;;;;;;6252139;28;94099;-67
2023/04/28 13:37:30;;;;;;;7.38;3.50;;;23.70;74.60;;;;;;6250794;28;94110;-66
2023/04/28 13:40:34;;;;;;;5.68;3.28;;;23.70;74.50;;;;;;6250877;28;94169;-66
2023/04/28 13:43:36;;;;;;;9.52;3.30;;;23.70;74.50;;;;;;6250571;28;94249;-66
2023/04/28 13:46:38;;;;;;;6.65;3.45;;;23.70;74.50;;;;;;6252101;28;93812;-66
2023/04/28 13:49:41;;;;;;;9.20;3.63;;;23.70;74.50;;;;;;6248542;27;94322;-66
2023/04/28 13:52:43;;;;;;;7.07;3.35;;;23.70;74.50;;;;;;6255877;28;94133;-66
2023/04/28 13:55:46;;;;;;;6.20;3.65;;;23.70;74.50;;;;;;6255103;28;95058;-67
2023/04/28 13:58:48;;;;;;;7.10;3.90;;;23.70;74.50;;;;;;6256599;28;94217;-67
2023/04/28 14:01:50;;;;;;;6.80;3.30;;;23.70;74.40;;;;;;6256186;28;94419;-66
2023/04/28 14:04:52;;;;;;;7.13;3.45;;;23.70;74.40;;;;;;6242811;28;94199;-67
2023/04/28 14:07:55;;;;;;;6.20;3.95;;;23.70;74.30;;;;;;6255056;28;94323;-66
2023/04/28 14:10:58;;;;;;;4.93;3.50;;;23.70;74.30;;;;;;6256138;28;94137;-67
2023/04/28 14:14:01;;;;;;;6.32;3.50;;;23.70;74.30;;;;;;6241674;28;94632;-67
2023/04/28 14:17:03;;;;;;;7.22;3.88;;;23.70;74.20;;;;;;6253730;28;93480;-66
2023/04/28 14:20:07;;;;;;;5.40;3.95;;;23.70;74.20;;;;;;6254783;28;94007;-66
2023/04/28 14:23:09;;;;;;;5.85;4.25;;;23.70;74.30;;;;;;6252014;28;94448;-66
2023/04/28 14:26:12;;;;;;;5.90;4.10;;;23.70;74.20;;;;;;6253917;28;94940;-67
2023/04/28 14:29:15;;;;;;;6.38;4.00;;;23.70;74.20;;;;;;6254753;28;94147;-67
2023/04/28 14:32:19;;;;;;;6.30;4.05;;;23.70;74.20;;;;;;6254943;28;94439;-66
2023/04/28 14:35:22;;;;;;;4.95;4.07;;;23.70;74.20;;;;;;6255116;28;94116;-67
2023/04/28 14:38:24;;;;;;;5.50;4.20;;;23.70;74.20;;;;;;6255446;28;94047;-67
2023/04/28 14:41:27;;;;;;;5.63;4.70;;;23.70;74.20;;;;;;6254811;28;94152;-67
2023/04/28 14:44:29;;;;;;;6.78;4.40;;;23.70;74.20;;;;;;6254018;28;94364;-67
2023/04/28 14:47:31;;;;;;;5.68;4.45;;;23.70;74.10;;;;;;6255591;28;93459;-67
2023/04/28 14:50:33;;;;;;;6.20;4.28;;;23.70;74.00;;;;;;6254352;28;94302;-67
2023/04/28 14:53:35;;;;;;;5.28;4.60;;;23.70;74.00;;;;;;6253659;28;94571;-67
2023/04/28 14:56:39;;;;;;;6.90;4.78;;;23.70;74.00;;;;;;6253511;28;95059;-66
2023/04/28 14:59:41;;;;;;;5.10;4.60;;;23.70;74.00;;;;;;6253793;28;94153;-66
2023/04/28 15:02:43;;;;;;;7.95;4.88;;;23.70;74.00;;;;;;6252901;28;94141;-66
2023/04/28 15:05:45;;;;;;;7.22;5.15;;;23.70;74.00;;;;;;6242536;28;94121;-67
2023/04/28 15:08:47;;;;;;;6.68;5.28;;;23.70;74.00;;;;;;6253612;28;94164;-66
2023/04/28 15:11:51;;;;;;;5.75;5.00;;;23.70;73.90;;;;;;6248519;28;94128;-67
2023/04/28 15:14:54;;;;;;;5.88;5.03;;;23.70;73.80;;;;;;6246530;28;94161;-66
2023/04/28 15:17:59;;;;;;;5.50;4.90;;;23.70;73.80;;;;;;6252148;28;93470;-66
2023/04/28 15:21:01;;;;;;;6.38;5.13;;;23.70;73.80;;;;;;6251047;28;94050;-67
2023/04/28 15:24:03;;;;;;;6.43;5.10;;;23.70;73.80;;;;;;6249115;28;94082;-66
2023/04/28 15:27:07;;;;;;;6.13;5.40;;;23.70;73.70;;;;;;6249429;28;95204;-67
2023/04/28 15:30:10;;;;;;;7.22;5.30;;;23.70;73.80;;;;;;6247146;28;94040;-65
2023/04/28 15:33:15;;;;;;;6.13;5.18;;;23.70;73.50;;;;;;6251125;28;94545;-65
2023/04/28 15:36:18;;;;;;;8.02;5.38;;;23.70;73.30;;;;;;6245819;27;94119;-65
2023/04/28 15:39:20;;;;;;;8.95;5.25;;;23.80;74.00;;;;;;6241931;28;94219;-65
2023/04/28 15:42:24;;;;;;;6.65;5.13;;;23.80;73.50;;;;;;6245590;28;94633;-65
2023/04/28 15:45:26;;;;;;;6.65;5.75;;;23.80;74.00;;;;;;6251158;28;94170;-65
2023/04/28 15:48:28;;;;;;;7.65;5.70;;;23.80;74.20;;;;;;6253118;28;93638;-65
2023/04/28 15:51:30;;;;;;;7.97;5.50;;;23.90;74.40;;;;;;6251213;28;94124;-65